Time;durP1;ratioP1;P1;durP2;ratioP2;P2;SDS_P1;SDS_P2;PMS_P1;PMS_P2;Temp;Humidity;BMP_temperature;BMP_pressure;BME280_temperature;BME280_humidity;BME280_pressure;Samples;Min_cycle;Max_cycle;Signal;HPM_P1;HPM_P2
2022/03/28 00:01:10;;;;;;;24.73;4.43;;;;;;;3.72;92.53;102926.81;5054349;28;20056;-75
2022/03/28 00:03:36;;;;;;;23.83;5.20;;;;;;;3.69;92.60;102924.25;5072411;28;20028;-75
2022/03/28 00:06:03;;;;;;;22.77;5.32;;;;;;;3.66;93.07;102919.94;5072431;28;20067;-74
2022/03/28 00:08:28;;;;;;;22.90;4.22;;;;;;;3.65;93.56;102918.19;5071977;28;20102;-75
2022/03/28 00:10:54;;;;;;;19.95;5.15;;;;;;;3.64;93.67;102919.13;5037526;28;20385;-74
2022/03/28 00:13:20;;;;;;;22.13;5.63;;;;;;;3.62;94.23;102920.91;5071562;28;20543;-75
2022/03/28 00:15:45;;;;;;;17.70;4.85;;;;;;;3.61;94.81;102921.81;5071727;28;20086;-74
2022/03/28 00:18:11;;;;;;;23.95;4.97;;;;;;;3.60;94.88;102916.59;5053347;28;20053;-74
2022/03/28 00:20:37;;;;;;;20.20;4.00;;;;;;;3.57;94.18;102909.69;5071730;28;20119;-79
2022/03/28 00:23:03;;;;;;;17.90;4.25;;;;;;;3.55;93.68;102915.88;5054057;28;20134;-75
2022/03/28 00:25:29;;;;;;;12.15;3.88;;;;;;;3.51;94.14;102918.59;5071640;28;20097;-74
2022/03/28 00:27:54;;;;;;;21.23;4.88;;;;;;;3.49;94.25;102917.78;5053529;28;20029;-75
2022/03/28 00:30:19;;;;;;;21.40;4.55;;;;;;;3.50;94.64;102911.59;5071577;28;20074;-74
2022/03/28 00:32:45;;;;;;;18.55;4.38;;;;;;;3.49;94.76;102912.53;5053156;28;20059;-74
2022/03/28 00:35:10;;;;;;;18.50;4.93;;;;;;;3.47;94.74;102916.94;5071707;28;20134;-75
2022/03/28 00:37:38;;;;;;;18.17;5.45;;;;;;;3.43;94.27;102903.91;5036866;28;20044;-77
2022/03/28 00:40:05;;;;;;;19.92;4.43;;;;;;;3.38;93.59;102904.03;5053710;28;20077;-75
2022/03/28 00:42:31;;;;;;;18.05;4.20;;;;;;;3.34;92.78;102898.00;5053676;28;20039;-75
2022/03/28 00:44:56;;;;;;;15.68;4.38;;;;;;;3.32;92.76;102898.97;5071160;28;20028;-74
2022/03/28 00:47:22;;;;;;;15.18;4.53;;;;;;;3.29;92.45;102893.78;5071576;28;20067;-74
2022/03/28 00:49:47;;;;;;;13.23;4.65;;;;;;;3.27;92.52;102898.19;5052677;28;20024;-74
2022/03/28 00:52:13;;;;;;;13.85;3.95;;;;;;;3.24;93.11;102901.78;5070989;28;20033;-75
2022/03/28 00:54:38;;;;;;;14.63;4.57;;;;;;;3.22;92.97;102895.69;5071069;28;20020;-77
2022/03/28 00:57:04;;;;;;;24.17;4.40;;;;;;;3.20;92.98;102887.00;5052714;28;20048;-74
2022/03/28 00:59:32;;;;;;;16.23;4.10;;;;;;;3.17;92.85;102882.66;5053206;28;20044;-74
2022/03/28 01:01:58;;;;;;;16.83;4.68;;;;;;;3.17;92.94;102874.78;5070579;28;20032;-75
2022/03/28 01:04:24;;;;;;;26.98;5.50;;;;;;;3.20;93.68;102873.84;5070752;28;20063;-75
2022/03/28 01:06:49;;;;;;;21.98;5.13;;;;;;;3.18;94.24;102873.03;5052593;28;20469;-76
2022/03/28 01:09:16;;;;;;;15.27;4.28;;;;;;;3.16;94.32;102873.06;5070543;28;20140;-75
2022/03/28 01:11:43;;;;;;;17.67;4.88;;;;;;;3.14;93.98;102860.84;5036070;28;20033;-77
2022/03/28 01:14:09;;;;;;;14.27;4.28;;;;;;;3.09;93.37;102858.34;5052907;28;20044;-75
2022/03/28 01:18:05;;;;;;;19.70;4.88;;;;;;;3.07;92.80;102860.13;5052191;28;20051;-75
2022/03/28 01:19:20;;;;;;;22.83;4.70;;;;;;;3.05;93.26;102856.69;5070305;28;20052;-75
2022/03/28 01:21:45;;;;;;;30.20;5.65;;;;;;;3.03;94.18;102855.88;5052096;28;20033;-77
2022/03/28 01:24:11;;;;;;;21.20;5.38;;;;;;;3.00;94.72;102859.44;5070413;28;20024;-75
2022/03/28 01:26:37;;;;;;;17.95;4.90;;;;;;;2.99;94.65;102851.59;5070294;28;20028;-75
2022/03/28 01:29:03;;;;;;;23.35;5.45;;;;;;;2.98;95.30;102850.72;5070162;28;20114;-74
2022/03/28 01:31:29;;;;;;;23.85;5.18;;;;;;;2.95;95.35;102853.44;5070934;28;20449;-75
2022/03/28 01:33:54;;;;;;;14.40;4.20;;;;;;;2.94;95.41;102849.09;5052264;28;20040;-75
2022/03/28 01:36:24;;;;;;;20.45;4.88;;;;;;;2.92;95.24;102850.88;5070189;28;20048;-75
2022/03/28 01:38:49;;;;;;;20.08;5.15;;;;;;;2.89;95.37;102840.44;5052332;28;20572;-75
2022/03/28 01:41:15;;;;;;;20.50;5.15;;;;;;;2.90;95.85;102836.06;5035496;28;20036;-75
2022/03/28 01:43:40;;;;;;;13.57;4.22;;;;;;;2.87;95.96;102838.78;5070744;28;20033;-75
2022/03/28 01:46:05;;;;;;;20.08;4.93;;;;;;;2.84;95.50;102834.47;5070088;28;20036;-75
2022/03/28 01:48:32;;;;;;;26.85;5.72;;;;;;;2.85;95.64;102835.31;5052320;28;20040;-75
2022/03/28 01:50:57;;;;;;;16.45;4.47;;;;;;;2.79;95.82;102826.69;5052210;28;20433;-75
2022/03/28 01:53:23;;;;;;;16.63;4.65;;;;;;;2.77;95.22;102825.00;5051904;28;20134;-75
2022/03/28 01:55:48;;;;;;;17.73;4.25;;;;;;;2.74;94.83;102819.81;5052085;28;20116;-77
2022/03/28 01:58:13;;;;;;;16.65;4.45;;;;;;;2.71;94.64;102815.50;5052141;28;20333;-75
2022/03/28 02:00:39;;;;;;;18.92;5.15;;;;;;;2.69;94.93;102819.94;5069935;28;20116;-75
2022/03/28 02:03:04;;;;;;;20.80;5.30;;;;;;;2.70;95.93;102819.03;5070448;28;20410;-75
2022/03/28 02:05:30;;;;;;;25.83;5.60;;;;;;;2.72;96.50;102825.13;5070365;28;20048;-75
2022/03/28 02:07:55;;;;;;;26.20;5.43;;;;;;;2.72;96.88;102822.50;5070212;28;20463;-75
2022/03/28 02:10:21;;;;;;;17.30;4.38;;;;;;;2.67;96.35;102824.34;5070138;28;20112;-74
2022/03/28 02:12:47;;;;;;;15.63;4.60;;;;;;;2.63;95.76;102817.47;5069857;28;20033;-74
2022/03/28 02:15:14;;;;;;;18.00;4.28;;;;;;;2.61;95.16;102814.00;5069493;28;20048;-74
2022/03/28 02:17:40;;;;;;;18.33;5.30;;;;;;;2.59;94.83;102813.19;5051638;28;20052;-73
2022/03/28 02:20:09;;;;;;;18.80;5.13;;;;;;;2.55;94.74;102807.13;5070112;28;20043;-74
2022/03/28 02:22:35;;;;;;;13.15;4.43;;;;;;;2.53;94.59;102813.34;5070121;28;20056;-75
2022/03/28 02:25:02;;;;;;;18.85;4.50;;;;;;;2.49;94.20;102809.06;5051982;28;20039;-75
2022/03/28 02:27:27;;;;;;;16.15;4.63;;;;;;;2.44;94.16;102799.53;5051450;28;20047;-73
2022/03/28 02:29:53;;;;;;;20.75;4.57;;;;;;;2.42;93.88;102793.47;5070198;28;20029;-76
2022/03/28 02:32:18;;;;;;;15.45;4.88;;;;;;;2.41;93.72;102794.34;5069617;28;20036;-74
2022/03/28 02:34:44;;;;;;;19.20;5.50;;;;;;;2.38;93.97;102798.84;5069775;28;20417;-74
2022/03/28 02:37:09;;;;;;;17.25;4.78;;;;;;;2.36;93.73;102791.00;5051678;28;20490;-74
2022/03/28 02:39:35;;;;;;;11.75;4.00;;;;;;;2.33;94.17;102780.56;5072716;28;20044;-74
2022/03/28 02:42:00;;;;;;;11.85;4.22;;;;;;;2.32;94.25;102775.34;5055730;28;20037;-75
2022/03/28 02:44:25;;;;;;;11.93;4.70;;;;;;;2.29;94.40;102779.75;5055591;28;20063;-74
2022/03/28 02:46:51;;;;;;;15.57;5.18;;;;;;;2.27;94.59;102784.19;5055748;28;20032;-74
2022/03/28 02:49:19;;;;;;;24.38;5.70;;;;;;;2.26;94.96;102784.22;5055483;28;20035;-76
2022/03/28 02:51:45;;;;;;;17.55;5.05;;;;;;;2.23;95.02;102769.41;5056065;28;20142;-74
2022/03/28 02:54:10;;;;;;;23.50;5.65;;;;;;;2.23;94.36;102768.56;5073443;28;20376;-74
2022/03/28 02:56:36;;;;;;;21.90;6.40;;;;;;;2.24;94.43;102763.25;5055727;28;20025;-74
2022/03/28 02:59:02;;;;;;;24.63;5.85;;;;;;;2.25;94.83;102753.59;5055706;28;20182;-74
2022/03/28 03:01:27;;;;;;;18.98;5.28;;;;;;;2.24;95.11;102762.38;5073974;28;20433;-74
2022/03/28 03:03:52;;;;;;;16.52;5.32;;;;;;;2.23;95.31;102758.03;5055223;28;20040;-75
2022/03/28 03:06:19;;;;;;;25.13;5.82;;;;;;;2.20;95.15;102753.72;5055236;28;20486;-75
2022/03/28 03:08:44;;;;;;;18.00;5.68;;;;;;;2.19;95.43;102751.97;5054769;28;20032;-73
2022/03/28 03:11:10;;;;;;;17.40;5.28;;;;;;;2.16;95.39;102741.56;5073283;28;20032;-75
2022/03/28 03:13:38;;;;;;;18.42;5.32;;;;;;;2.15;94.88;102747.72;5073297;28;20124;-74
2022/03/28 03:16:04;;;;;;;18.40;6.25;;;;;;;2.15;95.26;102750.34;5054916;28;20028;-75
2022/03/28 03:18:30;;;;;;;17.33;6.15;;;;;;;2.15;95.32;102746.84;5055397;28;20127;-74
2022/03/28 03:20:55;;;;;;;18.42;5.32;;;;;;;2.13;94.77;102754.75;5073088;28;20295;-74
2022/03/28 03:23:21;;;;;;;20.15;5.72;;;;;;;2.10;94.63;102739.94;5073316;28;20406;-74
2022/03/28 03:25:46;;;;;;;24.25;6.63;;;;;;;2.12;94.82;102745.19;5054792;28;20029;-74
2022/03/28 03:28:11;;;;;;;27.73;7.22;;;;;;;2.11;95.25;102741.66;5054889;28;20032;-75
2022/03/28 03:30:37;;;;;;;16.67;6.00;;;;;;;2.09;95.39;102732.09;5055293;28;20059;-74
2022/03/28 03:33:03;;;;;;;21.75;6.47;;;;;;;2.09;95.35;102734.72;5054775;28;20075;-79
2022/03/28 03:35:29;;;;;;;15.68;5.57;;;;;;;2.06;95.74;102725.19;5072698;28;20047;-74
2022/03/28 03:37:54;;;;;;;18.75;6.28;;;;;;;2.04;96.12;102732.22;5072628;28;20029;-74
2022/03/28 03:40:19;;;;;;;22.65;6.75;;;;;;;2.04;96.75;102728.72;5072824;28;20036;-74
2022/03/28 03:42:45;;;;;;;20.95;6.05;;;;;;;2.01;96.93;102720.94;5055031;28;20037;-75
2022/03/28 03:45:10;;;;;;;23.60;6.72;;;;;;;1.98;96.84;102718.38;5072812;28;20420;-75
2022/03/28 03:47:37;;;;;;;16.10;5.50;;;;;;;1.94;96.73;102723.72;5072848;28;20032;-74
2022/03/28 03:50:04;;;;;;;20.40;6.78;;;;;;;1.94;96.36;102714.94;5054405;28;20035;-74
2022/03/28 03:52:30;;;;;;;19.58;6.47;;;;;;;1.95;96.03;102716.69;5054640;28;20055;-74
2022/03/28 03:54:56;;;;;;;17.15;6.55;;;;;;;1.93;96.08;102711.47;5072720;28;20449;-75
2022/03/28 03:57:21;;;;;;;23.42;6.25;;;;;;;1.93;96.07;102711.47;5072482;28;20465;-75
2022/03/28 03:59:46;;;;;;;20.42;6.43;;;;;;;1.92;95.78;102711.50;5072842;28;20033;-76
2022/03/28 04:02:12;;;;;;;16.35;6.47;;;;;;;1.91;95.71;102708.03;5053454;28;20044;-76
2022/03/28 04:04:37;;;;;;;23.38;6.63;;;;;;;1.91;95.72;102704.53;5072197;28;20041;-76
2022/03/28 04:07:03;;;;;;;26.55;7.72;;;;;;;1.90;95.82;102706.31;5072444;28;20032;-76
2022/03/28 04:09:28;;;;;;;21.08;7.82;;;;;;;1.88;96.12;102699.34;5054091;28;20059;-75
2022/03/28 04:11:54;;;;;;;20.63;6.45;;;;;;;1.86;96.05;102703.78;5072242;28;20036;-75
2022/03/28 04:14:19;;;;;;;18.50;6.00;;;;;;;1.84;96.25;102713.47;5072384;28;20357;-75
2022/03/28 04:16:44;;;;;;;18.30;6.00;;;;;;;1.79;96.32;102705.69;5053519;28;20151;-74
2022/03/28 04:19:10;;;;;;;26.65;8.70;;;;;;;1.78;96.31;102711.84;5054084;28;20033;-74
2022/03/28 04:21:35;;;;;;;16.48;6.70;;;;;;;1.80;96.76;102717.06;5071981;28;20409;-74
2022/03/28 04:24:01;;;;;;;23.77;7.35;;;;;;;1.81;96.95;102711.78;5072003;28;20044;-75
2022/03/28 04:26:26;;;;;;;19.13;6.57;;;;;;;1.80;96.87;102709.19;5071980;28;20046;-74
2022/03/28 04:28:51;;;;;;;19.67;7.38;;;;;;;1.80;96.73;102709.19;5053658;28;20132;-74
2022/03/28 04:31:17;;;;;;;14.32;6.35;;;;;;;1.77;96.92;102718.00;5071578;28;20147;-75
2022/03/28 04:33:42;;;;;;;16.30;6.88;;;;;;;1.75;96.43;102707.53;5071850;28;20115;-74
2022/03/28 04:36:08;;;;;;;22.10;8.63;;;;;;;1.76;96.34;102711.00;5071619;28;20135;-74
2022/03/28 04:38:34;;;;;;;23.75;7.80;;;;;;;1.76;96.44;102709.25;5053565;28;20375;-74
2022/03/28 04:40:59;;;;;;;19.00;6.60;;;;;;;1.76;96.54;102708.38;5071055;28;20509;-75
2022/03/28 04:43:25;;;;;;;17.67;6.63;;;;;;;1.72;96.30;102702.34;5071632;28;20064;-74
2022/03/28 04:45:50;;;;;;;17.35;6.50;;;;;;;1.69;96.13;102696.31;5036315;28;20405;-73
2022/03/28 04:48:16;;;;;;;18.02;8.10;;;;;;;1.68;96.03;102698.06;5070882;28;20033;-75
2022/03/28 04:50:41;;;;;;;16.92;7.30;;;;;;;1.70;95.87;102687.53;5071021;28;20413;-74
2022/03/28 04:53:07;;;;;;;20.10;8.05;;;;;;;1.71;96.43;102697.16;5071269;28;20037;-73
2022/03/28 04:55:32;;;;;;;24.10;8.18;;;;;;;1.67;96.04;102685.88;5071155;28;20039;-74
2022/03/28 04:57:58;;;;;;;14.95;7.15;;;;;;;1.68;95.78;102681.47;5071364;28;20024;-74
2022/03/28 05:00:23;;;;;;;21.25;8.82;;;;;;;1.70;95.56;102672.66;5070447;28;20037;-74
2022/03/28 05:02:49;;;;;;;21.52;9.90;;;;;;;1.71;95.67;102677.00;5070410;28;20150;-74
2022/03/28 05:05:14;;;;;;;21.55;9.75;;;;;;;1.73;95.96;102675.22;5052562;28;20055;-77
2022/03/28 05:07:40;;;;;;;19.00;8.90;;;;;;;1.72;96.18;102665.63;5070711;28;20062;-73
2022/03/28 05:10:06;;;;;;;22.25;9.60;;;;;;;1.73;96.26;102659.47;5070671;28;20039;-74
2022/03/28 05:12:33;;;;;;;27.00;10.10;;;;;;;1.74;96.65;102661.19;5070638;28;20118;-73
2022/03/28 05:14:58;;;;;;;26.67;9.93;;;;;;;1.74;97.43;102668.19;5070836;28;20069;-74
2022/03/28 05:17:30;;;;;;;20.98;9.13;;;;;;;1.72;98.07;102665.63;5070178;28;20208;-74
2022/03/28 05:19:57;;;;;;;18.67;8.80;;;;;;;1.70;98.10;102663.91;5070701;28;20028;-74
2022/03/28 05:22:23;;;;;;;25.58;9.55;;;;;;;1.67;97.77;102664.88;5070273;28;20036;-74
2022/03/28 05:24:53;;;;;;;22.85;9.55;;;;;;;1.66;97.79;102662.28;5070454;28;20039;-75
2022/03/28 05:27:19;;;;;;;24.30;10.65;;;;;;;1.64;98.00;102666.69;5070557;28;20090;-76
2022/03/28 05:29:47;;;;;;;18.30;9.10;;;;;;;1.65;97.84;102664.03;5070302;28;20416;-74
2022/03/28 05:32:13;;;;;;;22.25;10.25;;;;;;;1.66;97.81;102668.38;5070571;28;20096;-74
2022/03/28 05:34:39;;;;;;;22.40;9.82;;;;;;;1.67;97.97;102670.13;5070582;28;20114;-74
2022/03/28 05:37:06;;;;;;;26.80;10.98;;;;;;;1.71;98.22;102669.13;5070510;28;20452;-73
2022/03/28 05:39:33;;;;;;;30.50;12.40;;;;;;;1.82;99.00;102666.25;5070394;28;20036;-74
2022/03/28 05:41:59;;;;;;;32.63;14.20;;;;;;;2.00;99.68;102662.31;5070197;28;20033;-74
2022/03/28 05:44:24;;;;;;;39.97;16.98;;;;;;;2.21;100.00;102660.00;5070526;28;20055;-75
2022/03/28 05:46:51;;;;;;;54.13;21.52;;;;;;;2.44;100.00;102662.03;5070338;28;20457;-75
2022/03/28 05:49:17;;;;;;;51.97;21.05;;;;;;;2.72;100.00;102666.53;5070193;28;20043;-75
2022/03/28 05:51:43;;;;;;;49.42;19.58;;;;;;;2.86;100.00;102661.72;5070643;28;20051;-75
2022/03/28 05:54:08;;;;;;;37.83;16.38;;;;;;;2.95;100.00;102653.56;5051803;28;20492;-75
2022/03/28 05:56:34;;;;;;;38.72;17.33;;;;;;;3.04;100.00;102652.44;5051666;28;20036;-75
2022/03/28 05:59:02;;;;;;;41.50;19.20;;;;;;;3.12;100.00;102647.81;5052039;28;20468;-75
2022/03/28 06:01:28;;;;;;;42.95;19.70;;;;;;;3.21;100.00;102645.81;5069843;28;20032;-75
2022/03/28 06:03:54;;;;;;;70.65;19.00;;;;;;;3.32;100.00;102656.88;5069815;28;20441;-75
2022/03/28 06:06:19;;;;;;;77.28;20.27;;;;;;;3.42;100.00;102655.69;5052165;28;20373;-75
2022/03/28 06:08:44;;;;;;;44.00;19.80;;;;;;;3.49;100.00;102659.84;5069788;28;20338;-75
2022/03/28 06:11:10;;;;;;;116.90;20.90;;;;;;;3.56;100.00;102652.59;5051993;28;20041;-75
2022/03/28 06:13:35;;;;;;;69.18;19.15;;;;;;;3.61;100.00;102658.56;5035160;28;20029;-75
2022/03/28 06:16:03;;;;;;;266.50;20.27;;;;;;;3.65;100.00;102654.94;5069547;28;20421;-75
2022/03/28 06:18:28;;;;;;;75.75;19.05;;;;;;;3.70;100.00;102646.88;5070047;28;20024;-76
2022/03/28 06:20:54;;;;;;;92.50;18.67;;;;;;;3.78;100.00;102644.88;5036187;28;20041;-75
2022/03/28 06:23:20;;;;;;;92.50;18.90;;;;;;;3.85;100.00;102643.75;5069667;28;20033;-75
2022/03/28 06:25:45;;;;;;;59.72;18.52;;;;;;;3.94;100.00;102644.34;5051380;28;20179;-76
2022/03/28 06:28:12;;;;;;;127.40;19.15;;;;;;;4.01;100.00;102643.22;5069791;28;20037;-74
2022/03/28 06:30:37;;;;;;;72.88;16.55;;;;;;;4.08;100.00;102642.13;5069575;28;20139;-76
2022/03/28 06:33:03;;;;;;;35.42;15.15;;;;;;;4.05;100.00;102643.06;5069402;28;20123;-76
2022/03/28 06:35:28;;;;;;;115.03;15.77;;;;;;;4.05;100.00;102643.06;5051264;28;20499;-78
2022/03/28 06:37:54;;;;;;;87.75;15.18;;;;;;;4.12;100.00;102650.75;5051632;28;20119;-76
2022/03/28 06:40:20;;;;;;;28.90;13.90;;;;;;;4.14;100.00;102649.81;5069636;28;20145;-75
2022/03/28 06:42:46;;;;;;;125.03;14.40;;;;;;;4.17;100.00;102647.06;5069579;28;20029;-76
2022/03/28 06:45:12;;;;;;;59.42;15.48;;;;;;;4.27;100.00;102644.09;5051775;28;20028;-74
2022/03/28 06:47:39;;;;;;;51.60;14.88;;;;;;;4.36;100.00;102649.03;5069452;28;20460;-75
2022/03/28 06:50:07;;;;;;;64.43;15.20;;;;;;;4.40;100.00;102646.25;5051190;28;20028;-75
2022/03/28 06:52:34;;;;;;;82.70;14.75;;;;;;;4.46;100.00;102647.78;5051577;28;20361;-75
2022/03/28 06:54:59;;;;;;;32.97;15.35;;;;;;;4.51;100.00;102643.22;5069500;28;20028;-73
2022/03/28 06:57:25;;;;;;;97.90;16.65;;;;;;;4.54;100.00;102643.13;5069385;28;20357;-73
2022/03/28 06:59:50;;;;;;;32.28;16.10;;;;;;;4.62;100.00;102634.94;5069382;28;20040;-74
2022/03/28 07:02:16;;;;;;;36.78;17.15;;;;;;;4.77;100.00;102638.78;5069592;28;20040;-74
2022/03/28 07:04:41;;;;;;;46.90;16.42;;;;;;;4.86;100.00;102630.50;5051242;28;20086;-74
2022/03/28 07:07:08;;;;;;;49.50;17.20;;;;;;;4.98;100.00;102637.09;5069691;28;20071;-74
2022/03/28 07:09:34;;;;;;;97.53;18.25;;;;;;;5.14;100.00;102633.88;5068984;28;20075;-77
2022/03/28 07:12:00;;;;;;;113.32;17.27;;;;;;;5.21;100.00;102633.59;5051397;28;20155;-74
2022/03/28 07:14:25;;;;;;;43.47;16.83;;;;;;;5.34;100.00;102631.28;5070154;28;20036;-74
2022/03/28 07:16:52;;;;;;;42.58;17.75;;;;;;;5.37;100.00;102633.81;5069099;28;20052;-76
2022/03/28 07:19:18;;;;;;;33.03;17.42;;;;;;;5.44;100.00;102626.53;5069408;28;20230;-75
2022/03/28 07:21:44;;;;;;;38.40;18.02;;;;;;;5.50;100.00;102626.28;5069707;28;20170;-75
2022/03/28 07:24:09;;;;;;;42.08;17.65;;;;;;;5.58;100.00;102625.94;5052096;28;20060;-75
2022/03/28 07:26:34;;;;;;;72.70;17.65;;;;;;;5.59;100.00;102628.53;5073249;28;20401;-76
2022/03/28 07:29:02;;;;;;;37.10;18.63;;;;;;;5.73;100.00;102630.63;5054756;28;20028;-75
2022/03/28 07:31:28;;;;;;;55.80;19.05;;;;;;;5.85;100.00;102625.72;5072777;28;20108;-76
2022/03/28 07:34:29;;;;;;;45.55;20.38;;;;;;;5.96;100.00;102634.06;5073205;28;20033;-75
2022/03/28 07:36:39;;;;;;;42.83;19.98;;;;;;;6.06;99.63;102631.91;5072358;28;20430;-77
2022/03/28 07:39:04;;;;;;;44.83;17.63;;;;;;;6.14;99.10;102629.81;5037728;28;20032;-76
2022/03/28 07:41:30;;;;;;;102.18;17.27;;;;;;;6.02;98.29;102627.69;5038066;28;20028;-77
2022/03/28 07:43:55;;;;;;;43.75;17.55;;;;;;;6.22;97.23;102624.19;5037884;28;20181;-75
2022/03/28 07:46:21;;;;;;;73.07;17.15;;;;;;;6.21;96.36;102618.06;5055056;28;20465;-75
2022/03/28 07:48:46;;;;;;;43.13;15.70;;;;;;;6.33;96.06;102624.59;5072367;28;20048;-76
2022/03/28 07:51:12;;;;;;;33.65;16.30;;;;;;;6.47;95.84;102614.25;5072568;28;20167;-75
2022/03/28 07:53:38;;;;;;;38.38;16.25;;;;;;;6.71;95.42;102619.34;5055096;28;20032;-75
2022/03/28 07:56:04;;;;;;;35.15;15.07;;;;;;;6.72;93.72;102615.78;5072321;28;20044;-76
2022/03/28 07:58:29;;;;;;;44.67;16.58;;;;;;;6.87;93.88;102615.06;5054434;28;20581;-76
2022/03/28 08:00:55;;;;;;;33.78;17.38;;;;;;;7.10;93.96;102617.56;5072461;28;20040;-77
2022/03/28 08:03:20;;;;;;;36.10;15.57;;;;;;;7.22;92.32;102617.81;5072257;28;20115;-77
2022/03/28 08:05:46;;;;;;;27.10;15.07;;;;;;;7.35;91.18;102620.75;5054103;28;20043;-77
2022/03/28 08:08:12;;;;;;;46.28;15.75;;;;;;;7.41;89.67;102619.59;5054309;28;20033;-77
2022/03/28 08:10:37;;;;;;;25.05;15.40;;;;;;;7.26;89.08;102615.91;5072306;28;20079;-77
2022/03/28 08:13:03;;;;;;;27.45;15.95;;;;;;;7.28;90.01;102613.16;5054088;28;20033;-77
2022/03/28 08:15:30;;;;;;;33.50;15.07;;;;;;;7.33;90.31;102614.66;5072495;28;20040;-76
2022/03/28 08:17:58;;;;;;;33.63;15.50;;;;;;;7.25;88.41;102614.16;5072374;28;20358;-77
2022/03/28 08:20:24;;;;;;;23.77;14.15;;;;;;;7.37;89.79;102616.22;5072304;28;20052;-76
2022/03/28 08:22:49;;;;;;;30.70;14.60;;;;;;;7.52;89.79;102605.81;5072034;28;20047;-77
2022/03/28 08:25:20;;;;;;;30.27;15.23;;;;;;;7.71;88.55;102611.91;5072160;28;20032;-76
2022/03/28 08:27:45;;;;;;;29.08;15.35;;;;;;;7.94;88.25;102616.06;5071817;28;20063;-78
2022/03/28 08:30:12;;;;;;;29.98;15.07;;;;;;;7.91;86.05;102607.38;5072006;28;20417;-75
2022/03/28 08:32:39;;;;;;;27.60;16.13;;;;;;;7.85;86.78;102615.66;5071710;28;20048;-74
2022/03/28 08:35:05;;;;;;;27.30;15.48;;;;;;;7.86;87.34;102604.13;5053488;28;20080;-76
2022/03/28 08:37:31;;;;;;;27.55;15.10;;;;;;;8.00;87.64;102598.09;5071149;28;20076;-76
2022/03/28 08:39:57;;;;;;;27.10;15.32;;;;;;;8.04;85.96;102597.88;5053587;28;20090;-76
2022/03/28 08:42:25;;;;;;;29.00;16.35;;;;;;;8.03;86.37;102596.16;5053891;28;20445;-75
2022/03/28 08:44:51;;;;;;;33.30;15.98;;;;;;;8.15;87.32;102597.34;5052955;28;20028;-74
2022/03/28 08:47:18;;;;;;;24.02;14.35;;;;;;;8.55;87.04;102591.72;5071362;28;20036;-77
2022/03/28 08:49:47;;;;;;;27.83;14.00;;;;;;;9.02;83.84;102584.72;5053473;28;20396;-75
2022/03/28 08:52:13;;;;;;;23.27;14.25;;;;;;;9.16;81.25;102590.13;5071991;28;20024;-77
2022/03/28 08:54:39;;;;;;;25.30;15.25;;;;;;;9.27;80.22;102590.38;5071668;28;20031;-76
2022/03/28 08:57:04;;;;;;;29.50;15.48;;;;;;;9.23;80.27;102585.31;5071008;28;20056;-76
2022/03/28 08:59:30;;;;;;;28.35;14.68;;;;;;;9.22;81.21;102591.56;5036439;28;20063;-78
2022/03/28 09:01:55;;;;;;;24.25;14.02;;;;;;;9.24;80.48;102593.19;5052989;28;20040;-77
2022/03/28 09:04:20;;;;;;;27.05;15.38;;;;;;;9.44;82.27;102580.56;5071409;28;20169;-76
2022/03/28 09:06:46;;;;;;;28.67;14.27;;;;;;;9.64;78.85;102584.72;5071371;28;20032;-75
2022/03/28 09:09:20;;;;;;;24.27;13.77;;;;;;;9.85;77.87;102580.78;5071134;28;20486;-75
2022/03/28 09:11:54;;;;;;;27.00;14.45;;;;;;;9.67;77.86;102585.41;5071430;28;20110;-73
2022/03/28 09:14:33;;;;;;;27.73;15.73;;;;;;;9.64;77.58;102587.38;5071775;28;20090;-73
2022/03/28 09:17:04;;;;;;;25.85;15.25;;;;;;;9.44;79.07;102592.03;5071164;28;20053;-74
2022/03/28 09:19:45;;;;;;;;;;;;;;;9.48;79.97;102582.09;5072102;28;20059;-76
2022/03/28 09:22:25;;;;;;;22.05;13.90;;;;;;;9.94;78.06;102592.69;5071391;28;20302;-77
2022/03/28 09:24:57;;;;;;;24.20;13.65;;;;;;;10.75;76.98;102580.66;5070979;28;20067;-75
2022/03/28 09:27:26;;;;;;;23.55;13.38;;;;;;;11.62;72.74;102581.19;5071488;28;20029;-75
2022/03/28 09:30:03;;;;;;;24.33;13.82;;;;;;;12.31;69.20;102575.63;5070463;28;20020;-77
2022/03/28 09:32:31;;;;;;;21.30;13.52;;;;;;;12.52;66.15;102568.78;5071177;28;20021;-77
2022/03/28 09:35:03;;;;;;;20.92;13.60;;;;;;;12.34;65.29;102568.22;5070816;28;20048;-76
2022/03/28 09:37:29;;;;;;;23.38;13.75;;;;;;;12.48;66.48;102571.75;5070943;28;20047;-76
2022/03/28 09:39:54;;;;;;;26.52;14.23;;;;;;;12.72;67.21;102563.81;5036390;28;20028;-78
2022/03/28 09:42:20;;;;;;;26.05;13.95;;;;;;;14.28;61.82;102565.47;5070721;28;20039;-77
2022/03/28 09:44:48;;;;;;;22.00;13.25;;;;;;;15.66;54.94;102563.19;5052684;28;20207;-77
2022/03/28 09:47:22;;;;;;;20.63;12.38;;;;;;;16.52;51.06;102563.78;5052136;28;20067;-77
2022/03/28 09:49:57;;;;;;;23.13;12.98;;;;;;;17.12;48.48;102554.03;5052676;28;20063;-76
2022/03/28 09:52:25;;;;;;;18.92;12.63;;;;;;;17.73;47.90;102552.88;5071221;28;20430;-77
2022/03/28 09:54:57;;;;;;;23.38;13.13;;;;;;;18.14;46.12;102553.50;5070445;28;20054;-77
2022/03/28 09:57:34;;;;;;;21.75;12.93;;;;;;;17.93;46.34;102559.09;5071081;28;20020;-77
2022/03/28 10:00:15;;;;;;;21.90;11.80;;;;;;;17.86;45.42;102550.72;5070629;28;20123;-76
2022/03/28 10:02:41;;;;;;;24.20;12.65;;;;;;;18.66;44.60;102545.72;5070498;28;20333;-75
2022/03/28 10:05:07;;;;;;;23.17;13.30;;;;;;;18.13;46.52;102541.84;5070601;28;20063;-75
2022/03/28 10:07:33;;;;;;;23.80;12.55;;;;;;;18.79;45.61;102539.09;5070652;28;20111;-75
2022/03/28 10:10:00;;;;;;;21.08;12.07;;;;;;;18.57;45.87;102535.84;5070304;28;20109;-76
2022/03/28 10:12:26;;;;;;;22.75;12.07;;;;;;;19.01;44.02;102527.06;5070535;28;20099;-75
2022/03/28 10:14:57;;;;;;;17.85;12.55;;;;;;;18.99;43.20;102534.47;5051968;28;20115;-75
2022/03/28 10:17:24;;;;;;;20.10;11.82;;;;;;;19.12;44.07;102532.25;5070241;28;20036;-75
2022/03/28 10:19:50;;;;;;;20.13;12.32;;;;;;;19.87;42.54;102522.84;5052645;28;20040;-75
2022/03/28 10:22:24;;;;;;;25.63;11.80;;;;;;;20.16;41.83;102517.09;5069890;28;20523;-75
2022/03/28 10:24:52;;;;;;;20.73;12.85;;;;;;;19.65;42.65;102508.00;5070801;28;20075;-76
2022/03/28 10:27:18;;;;;;;23.05;12.93;;;;;;;20.18;41.65;102508.81;5070275;28;20040;-76
2022/03/28 10:29:44;;;;;;;19.50;11.68;;;;;;;20.43;42.53;102507.06;5070378;28;20116;-76
2022/03/28 10:32:18;;;;;;;27.10;12.65;;;;;;;20.72;41.16;102503.97;5070341;28;20071;-76
2022/03/28 10:34:59;;;;;;;20.00;11.77;;;;;;;20.48;41.26;102493.91;5070209;28;20052;-76
2022/03/28 10:37:40;;;;;;;18.90;11.43;;;;;;;21.75;38.90;102497.22;5070668;28;20051;-76
2022/03/28 10:40:15;;;;;;;;;;;;;;;20.94;39.52;102494.38;5070700;28;20036;-77
2022/03/28 10:43:12;;;;;;;21.85;12.48;;;;;;;20.54;40.54;102487.84;5070334;28;19935;-78
2022/03/28 10:45:44;;;;;;;20.05;12.25;;;;;;;20.58;38.91;102486.47;5070914;28;20135;-78
2022/03/28 10:48:10;;;;;;;16.83;12.00;;;;;;;20.52;40.55;102484.44;5070081;28;20052;-77
2022/03/28 10:50:42;;;;;;;21.08;12.27;;;;;;;20.79;40.43;102496.03;5070350;28;20457;-77
2022/03/28 10:53:39;;;;;;;21.58;11.40;;;;;;;21.39;40.46;102486.75;5070250;28;20028;-78
2022/03/28 10:56:26;;;;;;;20.80;11.48;;;;;;;21.73;37.94;102482.13;5070179;28;20071;-78
2022/03/28 10:58:56;;;;;;;21.08;12.05;;;;;;;21.58;39.20;102476.59;5070800;28;20032;-78
2022/03/28 11:01:31;;;;;;;19.73;12.15;;;;;;;21.48;39.22;102477.59;5074044;28;20059;-77
2022/03/28 11:04:07;;;;;;;20.08;11.52;;;;;;;21.67;38.79;102472.84;5073725;28;20100;-77
2022/03/28 11:07:00;;;;;;;24.25;12.25;;;;;;;22.09;37.96;102471.66;5074445;28;20186;-78
2022/03/28 11:09:51;;;;;;;20.25;11.60;;;;;;;22.29;38.17;102457.69;5073945;28;20056;-78
2022/03/28 11:12:21;;;;;;;25.60;12.48;;;;;;;22.37;37.29;102463.09;5074170;28;20040;-77
2022/03/28 11:14:49;;;;;;;22.80;12.15;;;;;;;22.40;36.17;102461.91;5073631;28;20028;-76
2022/03/28 11:17:38;;;;;;;19.42;12.73;;;;;;;22.32;38.09;102460.91;5073844;28;20072;-77
2022/03/28 11:20:12;;;;;;;22.90;13.02;;;;;;;22.09;36.78;102457.28;5055664;28;20036;-77